Crown Of Scandinavia — OXRA6 — position and weather

sailwx.info

Track history (hours):
 
Tides and Currents Weather Stations Pressure Air Temp Water Temp Dewpoint Dewpoint Depression Visibility Wind Speed Wind Dir Waves Ship Positions

Crown Of Scandinavia

Last reported at 2018-Nov-11 02:32 UTC. Time now 2018-Nov-18 16:09 UTC.
Position N 57°14' E 011°52'.

Length 171 m; draft 6.3 m.

Type: Ship. MMSI: 219592000.

Date/timePositionNaut miles runAvg speedWind from/ knotsBaromVisibWave heightAir tempDewpointWater temp
2018-Nov-11 02:32N 57°14' E 011°52'816.2
2018-Nov-11 02:02N 57°20' E 011°44'816.3
2018-Nov-11 01:32N 57°27' E 011°36'816.4
2018-Nov-11 01:02N 57°34' E 011°27'816.6
2018-Nov-11 00:32N 57°41' E 011°19'816.2
2018-Nov-11 00:02N 57°48' E 011°10'815.9
2018-Nov-10 23:32N 57°54' E 011°02'815.9
2018-Nov-10 23:02N 58°02' E 010°57'816.6
2018-Nov-10 22:32N 58°10' E 010°52'816.3
2018-Nov-10 22:02N 58°17' E 010°47'816.1
2018-Nov-10 21:32N 58°25' E 010°41'815.2
2018-Nov-10 21:02N 58°32' E 010°39'714.6
2018-Nov-10 20:32N 58°40' E 010°38'815.4
2018-Nov-10 20:02N 58°47' E 010°39'815.7
2018-Nov-10 19:33N 58°55' E 010°38'816.0
2018-Nov-10 19:03N 59°03' E 010°38'816.0
2018-Nov-10 18:33N 59°11' E 010°38'816.1
2018-Nov-10 18:03N 59°19' E 010°35'816.2
2018-Nov-10 17:33N 59°27' E 010°33'816.8
2018-Nov-10 17:03N 59°35' E 010°38'714.6
2018-Nov-10 16:32N 59°42' E 010°35'816.2
2018-Nov-10 16:03N 59°50' E 010°35'612.2
2018-Nov-10 15:32N 59°54' E 010°45'0 0.2
2018-Nov-10 15:00N 59°54' E 010°45'0 0.0
2018-Nov-10 14:30N 59°54' E 010°45'0 0.0
2018-Nov-10 14:00N 59°54' E 010°45'0 0.0
2018-Nov-10 13:30N 59°54' E 010°45'0 0.0
2018-Nov-10 13:01N 59°54' E 010°45'0 0.0
2018-Nov-10 12:30N 59°54' E 010°45'0 0.0
2018-Nov-10 12:00N 59°54' E 010°45'1 1.5
2018-Nov-10 11:32N 59°54' E 010°43'815.4
2018-Nov-10 11:02N 59°48' E 010°35'715.1
2018-Nov-10 10:33N 59°40' E 010°37'816.0
2018-Nov-10 10:03N 59°32' E 010°37'917.9
2018-Nov-10 09:33N 59°23' E 010°35'918.7
2018-Nov-10 09:03N 59°14' E 010°38'918.6
2018-Nov-10 08:33N 59°05' E 010°40'918.1
2018-Nov-10 08:03N 58°56' E 010°41'918.3
2018-Nov-10 07:33N 58°47' E 010°43'816.1
2018-Nov-10 07:02N 58°38' E 010°43'3 5.1
2018-Nov-10 06:32N 58°36' E 010°44'2 4.2
2018-Nov-10 06:02N 58°34' E 010°44'1 2.6
2018-Nov-10 05:31N 58°35' E 010°44'1 1.0
2018-Nov-10 05:02N 58°36' E 010°44'1 2.2
2018-Nov-10 04:32N 58°35' E 010°45'1 1.8
2018-Nov-10 04:01N 58°34' E 010°45'1 2.3
2018-Nov-10 03:32N 58°33' E 010°46'1 1.5
2018-Nov-10 03:02N 58°32' E 010°47'612.2
2018-Nov-10 02:32N 58°26' E 010°51'1019.3
2018-Nov-10 02:01N 58°18' E 011°00'817.6
2018-Nov-10 01:33N 58°10' E 011°07'816.8
2018-Nov-10 01:03N 58°02' E 011°13'816.3
2018-Nov-10 00:33N 57°55' E 011°18'816.2
2018-Nov-10 00:03N 57°47' E 011°23'815.9
2018-Nov-09 23:33N 57°40' E 011°29'816.1
2018-Nov-09 23:03N 57°32' E 011°34'816.3
2018-Nov-09 22:33N 57°25' E 011°40'816.7
2018-Nov-09 22:03N 57°17' E 011°47'816.4
2018-Nov-09 21:33N 57°10' E 011°55'816.3
2018-Nov-09 21:03N 57°03' E 012°01'1216.0
2018-Nov-09 20:17N 56°51' E 012°09'4316.3
2018-Nov-09 17:39N 56°10' E 012°29'218.3
2018-Nov-09 17:32N 56°08' E 012°31'917.7
2018-Nov-09 17:03N 56°01' E 012°40'816.8
2018-Nov-09 16:33N 55°53' E 012°45'816.0
2018-Nov-09 16:03N 55°45' E 012°41'4 8.7
2018-Nov-09 15:32N 55°42' E 012°36'0 0.0
2018-Nov-09 15:00N 55°42' E 012°36'0 0.0
2018-Nov-09 14:24N 55°42' E 012°36'0 0.0
2018-Nov-09 14:00N 55°42' E 012°36'0 0.0
2018-Nov-09 13:27N 55°42' E 012°36'0 0.0
2018-Nov-09 12:57N 55°42' E 012°36'0 0.0
2018-Nov-09 12:30N 55°42' E 012°36'0 0.0
2018-Nov-09 11:57N 55°42' E 012°36'0 0.0
2018-Nov-09 11:30N 55°42' E 012°36'0 0.0
2018-Nov-09 11:00N 55°42' E 012°36'0 0.0
2018-Nov-09 10:27N 55°42' E 012°36'0 0.0
2018-Nov-09 09:57N 55°42' E 012°36'0 0.0
2018-Nov-09 09:27N 55°42' E 012°36'0 0.0
2018-Nov-09 08:57N 55°42' E 012°36'0 0.5
2018-Nov-09 08:33N 55°42' E 012°36'5 9.9
2018-Nov-09 08:02N 55°46' E 012°41'715.0
2018-Nov-09 07:32N 55°54' E 012°44'816.2
2018-Nov-09 07:02N 56°01' E 012°40'815.3
2018-Nov-09 06:32N 56°07' E 012°31'815.0
2018-Nov-09 06:01N 56°14' E 012°25'1815.8
2018-Nov-09 04:54N 56°31' E 012°16'4716.5
2018-Nov-09 02:04N 57°16' E 011°51'017.4
2018-Nov-09 02:02N 57°16' E 011°51'917.1
2018-Nov-09 01:33N 57°23' E 011°41'917.5
2018-Nov-09 01:03N 57°30' E 011°32'917.7
2018-Nov-09 00:33N 57°38' E 011°23'917.8
2018-Nov-09 00:03N 57°45' E 011°15'917.5
2018-Nov-08 23:32N 57°53' E 011°07'917.6
2018-Nov-08 23:02N 58°01' E 010°59'917.8
2018-Nov-08 22:32N 58°09' E 010°52'917.2
2018-Nov-08 22:02N 58°17' E 010°46'816.1
2018-Nov-08 21:32N 58°25' E 010°40'816.1
2018-Nov-08 21:02N 58°32' E 010°37'816.4
2018-Nov-08 20:32N 58°40' E 010°36'815.7
2018-Nov-08 20:03N 58°48' E 010°35'815.5
2018-Nov-08 19:33N 58°56' E 010°37'816.3
2018-Nov-08 19:02N 59°04' E 010°38'817.0
2018-Nov-08 18:32N 59°12' E 010°37'917.1
2018-Nov-08 18:02N 59°21' E 010°34'816.5
2018-Nov-08 17:33N 59°29' E 010°34'816.4
2018-Nov-08 17:02N 59°37' E 010°38'713.5
2018-Nov-08 16:32N 59°44' E 010°34'815.6
2018-Nov-08 16:03N 59°51' E 010°36'510.0
2018-Nov-08 15:33N 59°54' E 010°45'0 0.3
2018-Nov-08 15:02N 59°54' E 010°45'0 0.0
2018-Nov-08 14:32N 59°54' E 010°45'0 0.0
2018-Nov-08 14:02N 59°54' E 010°45'0 0.0
2018-Nov-08 13:32N 59°54' E 010°45'0 0.0
2018-Nov-08 13:02N 59°54' E 010°45'0 0.0
2018-Nov-08 12:32N 59°54' E 010°45'0 0.0
2018-Nov-08 12:02N 59°54' E 010°45'0 0.0
2018-Nov-08 11:32N 59°54' E 010°45'0 0.0
2018-Nov-08 11:02N 59°54' E 010°45'0 0.0
2018-Nov-08 10:32N 59°54' E 010°45'0 0.0
2018-Nov-08 10:02N 59°54' E 010°45'0 0.0
2018-Nov-08 09:32N 59°54' E 010°45'0 0.0
2018-Nov-08 09:02N 59°54' E 010°45'0 0.5
2018-Nov-08 08:32N 59°54' E 010°45'611.9
2018-Nov-08 08:02N 59°50' E 010°36'714.7
2018-Nov-08 07:32N 59°43' E 010°36'713.4
2018-Nov-08 07:02N 59°36' E 010°38'815.8
2018-Nov-08 06:32N 59°28' E 010°35'815.8
2018-Nov-08 06:02N 59°20' E 010°36'816.2
2018-Nov-08 05:32N 59°12' E 010°38'816.1
2018-Nov-08 05:02N 59°04' E 010°41'816.1
2018-Nov-08 04:32N 58°57' E 010°43'816.2
2018-Nov-08 04:02N 58°48' E 010°45'816.1
2018-Nov-08 03:32N 58°40' E 010°46'816.1
2018-Nov-08 03:03N 58°33' E 010°52'816.3
2018-Nov-08 02:32N 58°25' E 010°57'816.4
2018-Nov-08 02:02N 58°17' E 011°02'816.8
2018-Nov-08 01:32N 58°09' E 011°07'817.1
2018-Nov-08 01:03N 58°02' E 011°13'517.0
2018-Nov-08 00:43N 57°56' E 011°16'316.7
2018-Nov-08 00:32N 57°54' E 011°19'116.5
2018-Nov-08 00:28N 57°53' E 011°19'716.1
2018-Nov-08 00:03N 57°46' E 011°24'816.1
2018-Nov-07 23:33N 57°39' E 011°30'816.0
2018-Nov-07 23:02N 57°31' E 011°35'816.0
2018-Nov-07 22:32N 57°24' E 011°42'816.4
2018-Nov-07 22:03N 57°17' E 011°49'816.5
2018-Nov-07 21:32N 57°09' E 011°56'816.4
2018-Nov-07 21:02N 57°02' E 012°02'816.1
2018-Nov-07 20:32N 56°54' E 012°07'916.3
2018-Nov-07 20:00N 56°46' E 012°12'3715.7
2018-Nov-07 17:38N 56°10' E 012°29'217.5
2018-Nov-07 17:32N 56°08' E 012°31'817.1
2018-Nov-07 17:02N 56°02' E 012°40'816.4
2018-Nov-07 16:32N 55°54' E 012°44'815.9
2018-Nov-07 16:02N 55°46' E 012°42'510.3
2018-Nov-07 15:32N 55°42' E 012°36'0 0.2
2018-Nov-07 14:59N 55°42' E 012°36'0 0.0
2018-Nov-07 14:32N 55°42' E 012°36'0 0.0
2018-Nov-07 14:02N 55°42' E 012°36'0 0.0
2018-Nov-07 13:32N 55°42' E 012°36'0 0.0
2018-Nov-07 13:02N 55°42' E 012°36'0 0.0
2018-Nov-07 12:32N 55°42' E 012°36'0 0.0
2018-Nov-07 12:02N 55°42' E 012°36'0 0.0
2018-Nov-07 11:32N 55°42' E 012°36'0 0.0
2018-Nov-07 11:02N 55°42' E 012°36'0 0.0
2018-Nov-07 10:32N 55°42' E 012°36'0 0.0
2018-Nov-07 10:02N 55°42' E 012°36'0 0.0
2018-Nov-07 09:26N 55°42' E 012°36'0 0.0
2018-Nov-07 08:44N 55°42' E 012°36'0 0.0
2018-Nov-07 08:31N 55°42' E 012°36'2 4.8
2018-Nov-07 08:02N 55°44' E 012°39'612.5
2018-Nov-07 07:32N 55°50' E 012°41'713.1
2018-Nov-07 07:02N 55°56' E 012°39'714.2
2018-Nov-07 06:32N 56°03' E 012°38'713.9
2018-Nov-07 06:02N 56°08' E 012°29'713.7
2018-Nov-07 05:31N 56°15' E 012°25'9916.5
2018-Nov-06 23:30N 57°46' E 011°13'817.7
2018-Nov-06 23:03N 57°52' E 011°05'117.6
2018-Nov-06 23:00N 57°53' E 011°04'1918.5
2018-Nov-06 22:00N 58°10' E 010°51'918.2
2018-Nov-06 21:29N 58°19' E 010°45'716.6
2018-Nov-06 21:03N 58°26' E 010°40'225.2
2018-Nov-06 20:59N 58°27' E 010°39'816.8
2018-Nov-06 20:29N 58°36' E 010°36'816.7
2018-Nov-06 20:01N 58°43' E 010°35'0 1.1
2018-Nov-06 20:00N 58°43' E 010°35'917.9
2018-Nov-06 19:30N 58°52' E 010°35'817.9
2018-Nov-06 19:03N 59°00' E 010°36'118.7
2018-Nov-06 19:00N 59°01' E 010°37'918.4
2018-Nov-06 18:30N 59°10' E 010°38'818.6
2018-Nov-06 18:03N 59°19' E 010°35'118.6
2018-Nov-06 18:00N 59°19' E 010°35'918.4
2018-Nov-06 17:30N 59°29' E 010°34'817.8
2018-Nov-06 17:03N 59°36' E 010°38'116.4
2018-Nov-06 17:00N 59°37' E 010°38'713.7
2018-Nov-06 16:30N 59°44' E 010°34'816.7
2018-Nov-06 16:04N 59°51' E 010°36'117.0
2018-Nov-06 16:00N 59°52' E 010°37'4 9.0
2018-Nov-06 15:31N 59°54' E 010°45'0 0.0
2018-Nov-06 15:02N 59°54' E 010°45'0 0.0
2018-Nov-06 14:56N 59°54' E 010°45'0 0.0
2018-Nov-06 14:29N 59°54' E 010°45'0 0.0
2018-Nov-06 13:59N 59°54' E 010°45'0 0.0
2018-Nov-06 13:26N 59°54' E 010°45'0 0.0
2018-Nov-06 13:02N 59°54' E 010°45'0 0.0
2018-Nov-06 12:59N 59°54' E 010°45'0 0.0
2018-Nov-06 12:29N 59°54' E 010°45'0 0.0
2018-Nov-06 11:59N 59°54' E 010°45'0 0.0
2018-Nov-06 11:29N 59°54' E 010°45'0 0.0
2018-Nov-06 11:02N 59°54' E 010°45'0 0.0
2018-Nov-06 10:59N 59°54' E 010°45'0 0.0
2018-Nov-06 10:29N 59°54' E 010°45'0 0.0
2018-Nov-06 10:02N 59°54' E 010°45'0 0.0
2018-Nov-06 09:59N 59°54' E 010°45'0 0.0
2018-Nov-06 09:29N 59°54' E 010°45'0 0.0
2018-Nov-06 09:02N 59°54' E 010°45'0 0.0
2018-Nov-06 08:59N 59°54' E 010°45'1 1.9
2018-Nov-06 08:30N 59°54' E 010°43'614.1
2018-Nov-06 08:04N 59°49' E 010°35'116.8
2018-Nov-06 08:01N 59°48' E 010°35'714.2
2018-Nov-06 07:30N 59°41' E 010°36'613.5
2018-Nov-06 07:04N 59°35' E 010°38'115.5
2018-Nov-06 07:01N 59°34' E 010°38'815.5
2018-Nov-06 06:31N 59°27' E 010°34'715.8
2018-Nov-06 06:04N 59°20' E 010°36'115.9
2018-Nov-06 06:01N 59°19' E 010°36'816.1
2018-Nov-06 05:31N 59°11' E 010°39'716.1
2018-Nov-06 05:04N 59°04' E 010°42'116.0
2018-Nov-06 05:01N 59°03' E 010°42'815.6
2018-Nov-06 04:31N 58°56' E 010°43'715.8
2018-Nov-06 04:03N 58°48' E 010°44'115.7
2018-Nov-06 04:00N 58°48' E 010°45'917.2
2018-Nov-06 03:29N 58°39' E 010°47'716.2
2018-Nov-06 03:04N 58°32' E 010°51'115.1
2018-Nov-06 02:58N 58°31' E 010°52'715.0
2018-Nov-06 02:30N 58°24' E 010°56'716.7
2018-Nov-06 02:03N 58°17' E 011°01'112.4
2018-Nov-06 02:00N 58°16' E 011°01'817.2
2018-Nov-06 01:31N 58°08' E 011°06'816.9
2018-Nov-06 01:01N 58°00' E 011°11'2516.6
2018-Nov-05 23:31N 57°37' E 011°25'715.9
2018-Nov-05 23:04N 57°30' E 011°29'116.0
2018-Nov-05 23:01N 57°29' E 011°30'816.3
2018-Nov-05 22:30N 57°21' E 011°35'716.5
2018-Nov-05 22:04N 57°14' E 011°39'116.4
2018-Nov-05 22:01N 57°14' E 011°39'816.8
2018-Nov-05 21:31N 57°05' E 011°43'816.8
2018-Nov-05 21:02N 56°58' E 011°48'116.9
2018-Nov-05 21:00N 56°57' E 011°48'917.3
2018-Nov-05 20:29N 56°49' E 011°52'817.2
2018-Nov-05 20:03N 56°41' E 011°56'116.9
2018-Nov-05 20:00N 56°41' E 011°56'816.8
2018-Nov-05 19:30N 56°33' E 011°59'817.1
2018-Nov-05 19:03N 56°25' E 012°05'1216.9
2018-Nov-05 18:21N 56°16' E 012°18'516.4
2018-Nov-05 18:03N 56°12' E 012°24'116.9
2018-Nov-05 18:00N 56°12' E 012°25'917.3
2018-Nov-05 17:31N 56°05' E 012°35'716.2
2018-Nov-05 17:04N 55°59' E 012°41'115.3
2018-Nov-05 17:01N 55°58' E 012°42'815.3
2018-Nov-05 16:31N 55°51' E 012°44'715.0
2018-Nov-05 16:04N 55°45' E 012°40'114.3
2018-Nov-05 16:01N 55°44' E 012°40'3 5.4
2018-Nov-05 15:30N 55°42' E 012°36'0 0.0
2018-Nov-05 15:03N 55°42' E 012°36'0 0.0
2018-Nov-05 15:00N 55°42' E 012°36'0 0.0
2018-Nov-05 14:27N 55°42' E 012°36'0 0.0
2018-Nov-05 14:03N 55°42' E 012°36'0 0.0
2018-Nov-05 14:00N 55°42' E 012°36'0 0.0
2018-Nov-05 13:03N 55°42' E 012°36'0 0.0
2018-Nov-05 13:00N 55°42' E 012°36'0 0.0
2018-Nov-05 12:30N 55°42' E 012°36'0 0.0
2018-Nov-05 12:00N 55°42' E 012°36'0 0.0
2018-Nov-05 11:30N 55°42' E 012°36'0 0.0
2018-Nov-05 11:03N 55°42' E 012°36'0 0.0
2018-Nov-05 11:00N 55°42' E 012°36'0 0.0
2018-Nov-05 10:30N 55°42' E 012°36'0 0.0
2018-Nov-05 10:00N 55°42' E 012°36'0 0.0
2018-Nov-05 09:30N 55°42' E 012°36'0 0.0
2018-Nov-05 09:03N 55°42' E 012°36'0 0.1
2018-Nov-05 09:00N 55°42' E 012°36'3 5.3
2018-Nov-05 08:30N 55°44' E 012°39'715.1
2018-Nov-05 08:03N 55°51' E 012°41'116.7
2018-Nov-05 08:00N 55°51' E 012°41'816.4
2018-Nov-05 07:30N 55°60' E 012°40'715.5
2018-Nov-05 07:03N 56°06' E 012°34'115.8
2018-Nov-05 07:00N 56°06' E 012°33'815.2
2018-Nov-05 06:30N 56°13' E 012°26'915.8
2018-Nov-05 05:57N 56°21' E 012°21'816.8
2018-Nov-05 05:27N 56°29' E 012°16'2217.7
2018-Nov-05 04:14N 56°50' E 012°05'617.8
2018-Nov-05 03:52N 56°56' E 012°02'918.4
2018-Nov-05 03:25N 57°04' E 011°58'1018.0
2018-Nov-05 02:52N 57°13' E 011°52'617.9
2018-Nov-05 02:30N 57°19' E 011°46'817.2
2018-Nov-05 02:03N 57°25' E 011°38'117.3
2018-Nov-05 02:00N 57°26' E 011°37'917.5
2018-Nov-05 01:30N 57°34' E 011°28'817.2
2018-Nov-05 01:03N 57°40' E 011°21'117.2
2018-Nov-05 01:00N 57°41' E 011°21'816.9
2018-Nov-05 00:30N 57°49' E 011°15'816.9
2018-Nov-05 00:03N 57°55' E 011°08'116.9
2018-Nov-05 00:00N 57°56' E 011°07'917.0
2018-Nov-04 23:30N 58°04' E 010°59'817.6
2018-Nov-04 23:03N 58°10' E 010°51'117.3
2018-Nov-04 23:00N 58°11' E 010°50'816.7
2018-Nov-04 22:30N 58°19' E 010°45'816.8
2018-Nov-04 22:03N 58°26' E 010°40'117.0
2018-Nov-04 22:00N 58°27' E 010°39'815.2
2018-Nov-04 21:30N 58°34' E 010°37'714.7
2018-Nov-04 21:03N 58°41' E 010°35'115.2
2018-Nov-04 21:00N 58°42' E 010°35'815.4
2018-Nov-04 20:31N 58°49' E 010°33'714.8
2018-Nov-04 20:03N 58°56' E 010°32'114.7
2018-Nov-04 20:01N 58°57' E 010°32'611.6
2018-Nov-04 19:30N 59°02' E 010°34'613.5
2018-Nov-04 19:03N 59°08' E 010°37'114.2
2018-Nov-04 19:00N 59°09' E 010°38'714.9
2018-Nov-04 18:31N 59°16' E 010°36'715.1
2018-Nov-04 18:03N 59°23' E 010°34'115.1
2018-Nov-04 18:00N 59°24' E 010°34'714.9
2018-Nov-04 17:30N 59°31' E 010°35'815.0
2018-Nov-04 17:01N 59°38' E 010°37'612.6
2018-Nov-04 16:31N 59°44' E 010°33'714.6
2018-Nov-04 16:03N 59°51' E 010°35'115.1
2018-Nov-04 16:00N 59°51' E 010°36'5 9.8
2018-Nov-04 15:30N 59°54' E 010°45'0 0.3
2018-Nov-04 15:03N 59°54' E 010°45'0 0.0
2018-Nov-04 15:00N 59°54' E 010°45'0 0.0
2018-Nov-04 14:30N 59°54' E 010°45'0 0.0
2018-Nov-04 14:04N 59°54' E 010°45'0 0.0
2018-Nov-04 14:01N 59°54' E 010°45'0 0.0
2018-Nov-04 13:30N 59°54' E 010°45'0 0.0
2018-Nov-04 13:03N 59°54' E 010°45'0 0.0
2018-Nov-04 13:00N 59°54' E 010°45'0 0.0
2018-Nov-04 12:30N 59°54' E 010°45'0 0.0
2018-Nov-04 12:03N 59°54' E 010°45'0 0.0
2018-Nov-04 12:01N 59°54' E 010°45'0 0.0
2018-Nov-04 11:30N 59°54' E 010°45'0 0.0
2018-Nov-04 11:04N 59°54' E 010°45'0 0.0
2018-Nov-04 11:01N 59°54' E 010°45'0 0.0
2018-Nov-04 10:31N 59°54' E 010°45'0 0.0
2018-Nov-04 10:04N 59°54' E 010°45'0 0.0
2018-Nov-04 10:01N 59°54' E 010°45'0 0.0
2018-Nov-04 09:31N 59°54' E 010°45'0 0.0
2018-Nov-04 09:03N 59°54' E 010°45'0 0.0
2018-Nov-04 09:00N 59°54' E 010°45'0 0.6
2018-Nov-04 08:31N 59°54' E 010°44'613.1
2018-Nov-04 08:03N 59°50' E 010°36'115.2
2018-Nov-04 08:01N 59°49' E 010°35'714.6
2018-Nov-04 07:30N 59°42' E 010°36'612.7
2018-Nov-04 07:03N 59°36' E 010°38'115.8
2018-Nov-04 07:00N 59°36' E 010°38'816.1
2018-Nov-04 06:30N 59°28' E 010°34'816.9
2018-Nov-04 06:03N 59°20' E 010°36'117.0
2018-Nov-04 06:00N 59°19' E 010°36'816.9
2018-Nov-04 05:30N 59°11' E 010°39'716.3
2018-Nov-04 05:04N 59°04' E 010°38'115.9
2018-Nov-04 05:01N 59°03' E 010°38'815.7
2018-Nov-04 04:30N 58°55' E 010°38'716.3
2018-Nov-04 04:03N 58°48' E 010°38'116.5
2018-Nov-04 04:00N 58°47' E 010°38'816.2
2018-Nov-04 03:30N 58°39' E 010°38'716.2
2018-Nov-04 03:03N 58°31' E 010°38'116.6
2018-Nov-04 03:00N 58°30' E 010°38'816.8
2018-Nov-04 02:30N 58°22' E 010°41'816.6
2018-Nov-04 02:03N 58°15' E 010°44'116.3
2018-Nov-04 02:00N 58°14' E 010°45'816.2
2018-Nov-04 01:30N 58°07' E 010°52'715.9
2018-Nov-04 01:03N 58°01' E 010°58'115.9
2018-Nov-04 01:00N 58°00' E 010°59'816.0
2018-Nov-04 00:30N 57°53' E 011°04'716.0
2018-Nov-04 00:03N 57°46' E 011°09'116.2
2018-Nov-04 00:00N 57°45' E 011°09'815.9
2018-Nov-03 23:30N 57°38' E 011°14'716.3
2018-Nov-03 23:03N 57°32' E 011°22'116.4
2018-Nov-03 23:00N 57°31' E 011°23'816.4
2018-Nov-03 22:31N 57°23' E 011°29'3416.6
2018-Nov-03 20:27N 56°52' E 011°53'3116.3
2018-Nov-03 18:31N 56°24' E 012°18'018.7
2018-Nov-03 18:31N 56°24' E 012°18'1616.6
2018-Nov-03 17:33N 56°09' E 012°31'117.3
2018-Nov-03 17:30N 56°08' E 012°31'716.7
2018-Nov-03 17:03N 56°03' E 012°40'113.7
2018-Nov-03 17:00N 56°02' E 012°40'815.9
2018-Nov-03 16:30N 55°54' E 012°45'716.1
2018-Nov-03 16:03N 55°47' E 012°42'115.5
2018-Nov-03 16:01N 55°47' E 012°42'510.6
2018-Nov-03 15:30N 55°42' E 012°36'0 0.6
2018-Nov-03 15:04N 55°42' E 012°36'0 0.0
2018-Nov-03 15:01N 55°42' E 012°36'0 0.0
2018-Nov-03 14:31N 55°42' E 012°36'0 0.0
2018-Nov-03 14:03N 55°42' E 012°36'0 0.0
2018-Nov-03 14:00N 55°42' E 012°36'0 0.0
2018-Nov-03 13:31N 55°42' E 012°36'0 0.0
2018-Nov-03 13:03N 55°42' E 012°36'0 0.0
2018-Nov-03 13:00N 55°42' E 012°36'0 0.0
2018-Nov-03 12:30N 55°42' E 012°36'0 0.0
2018-Nov-03 12:03N 55°42' E 012°36'0 0.0
2018-Nov-03 12:00N 55°42' E 012°36'0 0.0
2018-Nov-03 11:31N 55°42' E 012°36'0 0.0
2018-Nov-03 11:03N 55°42' E 012°36'0 0.0
2018-Nov-03 11:01N 55°42' E 012°36'0 0.0
2018-Nov-03 10:30N 55°42' E 012°36'0 0.0
2018-Nov-03 10:04N 55°42' E 012°36'0 0.0
2018-Nov-03 10:01N 55°42' E 012°36'0 0.0
2018-Nov-03 09:30N 55°42' E 012°36'0 0.7
2018-Nov-03 09:04N 55°42' E 012°36'0 1.1
2018-Nov-03 09:00N 55°42' E 012°36'713.4
2018-Nov-03 08:31N 55°48' E 012°42'817.3
2018-Nov-03 08:03N 55°56' E 012°39'118.1
2018-Nov-03 08:00N 55°57' E 012°39'816.8
2018-Nov-03 07:31N 56°05' E 012°36'818.1
2018-Nov-03 07:03N 56°12' E 012°27'118.0
2018-Nov-03 07:01N 56°12' E 012°27'4817.4
2018-Nov-03 04:14N 56°58' E 012°00'1518.4
2018-Nov-03 03:25N 57°13' E 011°53'618.5
2018-Nov-03 03:04N 57°19' E 011°47'118.4
2018-Nov-03 03:01N 57°19' E 011°46'918.1
2018-Nov-03 02:31N 57°27' E 011°37'818.4
2018-Nov-03 02:03N 57°34' E 011°29'118.3
2018-Nov-03 02:00N 57°35' E 011°28'918.2
2018-Nov-03 01:30N 57°43' E 011°19'818.6
2018-Nov-03 01:04N 57°50' E 011°11'118.5
2018-Nov-03 01:01N 57°51' E 011°10'918.1
2018-Nov-03 00:30N 57°58' E 011°01'818.1
2018-Nov-03 00:03N 58°06' E 010°56'117.6
2018-Nov-03 00:00N 58°07' E 010°55'917.5
2018-Nov-02 23:30N 58°15' E 010°49'817.5
2018-Nov-02 23:03N 58°23' E 010°45'117.5
2018-Nov-02 23:00N 58°23' E 010°45'917.4
2018-Nov-02 22:30N 58°32' E 010°39'817.9
2018-Nov-02 22:03N 58°39' E 010°34'117.7
2018-Nov-02 22:00N 58°40' E 010°34'917.5
2018-Nov-02 21:30N 58°49' E 010°35'716.5
2018-Nov-02 21:04N 58°56' E 010°34'115.3
2018-Nov-02 21:01N 58°57' E 010°33'815.3
2018-Nov-02 20:30N 59°04' E 010°36'511.1
2018-Nov-02 20:03N 59°09' E 010°38'0 9.5
2018-Nov-02 20:00N 59°10' E 010°38'5 9.7
2018-Nov-02 19:30N 59°15' E 010°37'4 9.8
2018-Nov-02 19:03N 59°19' E 010°36'0 9.7
2018-Nov-02 19:00N 59°19' E 010°36'5 9.6
2018-Nov-02 18:30N 59°24' E 010°34'4 9.9
2018-Nov-02 18:03N 59°29' E 010°34'110.1
2018-Nov-02 18:00N 59°29' E 010°34'510.3
2018-Nov-02 17:30N 59°34' E 010°38'511.8
2018-Nov-02 17:03N 59°39' E 010°37'111.3
2018-Nov-02 17:00N 59°40' E 010°37'611.9
2018-Nov-02 16:30N 59°45' E 010°33'613.5
2018-Nov-02 16:04N 59°51' E 010°36'113.7
2018-Nov-02 16:00N 59°52' E 010°37'4 8.8
2018-Nov-02 15:31N 59°54' E 010°45'0 0.2
2018-Nov-02 15:01N 59°54' E 010°45'0 0.0
2018-Nov-02 14:55N 59°54' E 010°45'0 0.0
2018-Nov-02 14:28N 59°54' E 010°45'0 0.0
2018-Nov-02 13:58N 59°54' E 010°45'0 0.0
2018-Nov-02 13:25N 59°54' E 010°45'0 0.0
2018-Nov-02 13:01N 59°54' E 010°45'0 0.0
2018-Nov-02 12:58N 59°54' E 010°45'0 0.0
2018-Nov-02 12:28N 59°54' E 010°45'0 0.0
2018-Nov-02 12:01N 59°54' E 010°45'0 0.0
2018-Nov-02 11:58N 59°54' E 010°45'0 0.0
2018-Nov-02 11:28N 59°54' E 010°45'0 0.0
2018-Nov-02 10:58N 59°54' E 010°45'0 0.0
2018-Nov-02 10:28N 59°54' E 010°45'0 0.0
2018-Nov-02 10:01N 59°54' E 010°45'0 0.0
2018-Nov-02 09:58N 59°54' E 010°45'0 0.0
2018-Nov-02 09:28N 59°54' E 010°45'0 0.0
2018-Nov-02 09:01N 59°54' E 010°45'0 0.0
2018-Nov-02 08:58N 59°54' E 010°45'1 1.3
2018-Nov-02 08:30N 59°54' E 010°44'614.0
2018-Nov-02 08:04N 59°49' E 010°35'115.6
2018-Nov-02 08:00N 59°49' E 010°35'714.5
2018-Nov-02 07:30N 59°41' E 010°36'613.0
2018-Nov-02 07:03N 59°36' E 010°38'115.0
2018-Nov-02 07:00N 59°35' E 010°38'714.7
2018-Nov-02 06:30N 59°28' E 010°34'715.0
2018-Nov-02 06:03N 59°21' E 010°35'116.1
2018-Nov-02 06:00N 59°20' E 010°36'816.1
2018-Nov-02 05:30N 59°12' E 010°38'716.1
2018-Nov-02 05:04N 59°05' E 010°40'116.4
2018-Nov-02 05:01N 59°04' E 010°40'816.1
2018-Nov-02 04:30N 58°56' E 010°42'715.8
2018-Nov-02 04:03N 58°49' E 010°44'115.6
2018-Nov-02 04:00N 58°49' E 010°44'815.7
2018-Nov-02 03:30N 58°41' E 010°48'715.8
2018-Nov-02 03:03N 58°34' E 010°52'116.0
2018-Nov-02 03:00N 58°33' E 010°52'816.2
2018-Nov-02 02:30N 58°26' E 010°57'716.1
2018-Nov-02 02:04N 58°19' E 011°01'116.1
2018-Nov-02 02:00N 58°18' E 011°02'816.5
2018-Nov-02 01:30N 58°10' E 011°07'716.6
2018-Nov-02 01:03N 58°03' E 011°12'116.0
2018-Nov-02 01:00N 58°03' E 011°12'116.1
2018-Nov-02 00:56N 58°01' E 011°13'516.3
2018-Nov-02 00:36N 57°56' E 011°17'116.1
2018-Nov-02 00:30N 57°55' E 011°18'716.0
2018-Nov-02 00:04N 57°48' E 011°22'116.0
2018-Nov-02 00:00N 57°47' E 011°23'815.9
2018-Nov-01 23:31N 57°40' E 011°28'715.4
2018-Nov-01 23:03N 57°33' E 011°32'115.2
2018-Nov-01 23:00N 57°32' E 011°32'815.4
2018-Nov-01 22:30N 57°25' E 011°35'715.7
2018-Nov-01 22:03N 57°18' E 011°37'116.1
2018-Nov-01 22:00N 57°17' E 011°37'816.1
2018-Nov-01 21:30N 57°09' E 011°40'715.8
2018-Nov-01 21:03N 57°03' E 011°44'115.9
2018-Nov-01 21:00N 57°02' E 011°44'5616.3
2018-Nov-01 17:35N 56°11' E 012°27'218.2
2018-Nov-01 17:30N 56°10' E 012°29'818.2
2018-Nov-01 17:04N 56°04' E 012°38'116.7
2018-Nov-01 17:00N 56°03' E 012°39'816.2
2018-Nov-01 16:30N 55°56' E 012°44'716.2
2018-Nov-01 16:03N 55°48' E 012°43'115.6
2018-Nov-01 16:00N 55°48' E 012°43'612.6
2018-Nov-01 15:30N 55°42' E 012°37'1 1.0
2018-Nov-01 15:01N 55°42' E 012°36'0 0.0
2018-Nov-01 14:58N 55°42' E 012°36'0 0.0
2018-Nov-01 14:28N 55°42' E 012°36'0 0.0
2018-Nov-01 13:55N 55°42' E 012°36'0 0.0
2018-Nov-01 13:25N 55°42' E 012°36'0 0.0
2018-Nov-01 13:01N 55°42' E 012°36'0 0.0
2018-Nov-01 12:58N 55°42' E 012°36'0 0.0
2018-Nov-01 12:28N 55°42' E 012°36'0 0.0
2018-Nov-01 12:01N 55°42' E 012°36'0 0.0
2018-Nov-01 11:58N 55°42' E 012°36'0 0.0
2018-Nov-01 11:28N 55°42' E 012°36'0 0.0
2018-Nov-01 10:52N 55°42' E 012°36'0 0.0
2018-Nov-01 10:28N 55°42' E 012°36'0 0.0
2018-Nov-01 09:49N 55°42' E 012°36'0 0.0
2018-Nov-01 09:28N 55°42' E 012°36'0 0.5
2018-Nov-01 09:03N 55°42' E 012°36'0 2.5
2018-Nov-01 09:00N 55°42' E 012°36'510.9
2018-Nov-01 08:31N 55°47' E 012°42'715.3
2018-Nov-01 08:03N 55°54' E 012°40'116.0
2018-Nov-01 08:00N 55°54' E 012°39'815.9
2018-Nov-01 07:31N 56°02' E 012°39'714.6
2018-Nov-01 07:03N 56°07' E 012°31'115.5
2018-Nov-01 06:59N 56°08' E 012°30'816.0
2018-Nov-01 06:29N 56°15' E 012°24'6116.8
2018-Nov-01 02:50N 57°14' E 011°52'  
Track history (hours):
 
Tides and Currents Weather Stations Pressure Air Temp Water Temp Dewpoint Dewpoint Depression Visibility Wind Speed Wind Dir Waves Ship Positions

Crown Of Scandinavia

Last reported at 2018-Nov-11 02:32 UTC. Time now 2018-Nov-18 16:09 UTC.
Position N 57°14' E 011°52'.

Length 171 m; draft 6.3 m.

Type: Ship. MMSI: 219592000.

Date/timePositionNaut miles runAvg speedWind from/ knotsBaromVisibWave heightAir tempDewpointWater temp
2018-Nov-11 02:32N 57°14' E 011°52'816.2
2018-Nov-11 02:02N 57°20' E 011°44'816.3
2018-Nov-11 01:32N 57°27' E 011°36'816.4
2018-Nov-11 01:02N 57°34' E 011°27'816.6
2018-Nov-11 00:32N 57°41' E 011°19'816.2
2018-Nov-11 00:02N 57°48' E 011°10'815.9
2018-Nov-10 23:32N 57°54' E 011°02'815.9
2018-Nov-10 23:02N 58°02' E 010°57'816.6
2018-Nov-10 22:32N 58°10' E 010°52'816.3
2018-Nov-10 22:02N 58°17' E 010°47'816.1
2018-Nov-10 21:32N 58°25' E 010°41'815.2
2018-Nov-10 21:02N 58°32' E 010°39'714.6
2018-Nov-10 20:32N 58°40' E 010°38'815.4
2018-Nov-10 20:02N 58°47' E 010°39'815.7
2018-Nov-10 19:33N 58°55' E 010°38'816.0
2018-Nov-10 19:03N 59°03' E 010°38'816.0
2018-Nov-10 18:33N 59°11' E 010°38'816.1
2018-Nov-10 18:03N 59°19' E 010°35'816.2
2018-Nov-10 17:33N 59°27' E 010°33'816.8
2018-Nov-10 17:03N 59°35' E 010°38'714.6
2018-Nov-10 16:32N 59°42' E 010°35'816.2
2018-Nov-10 16:03N 59°50' E 010°35'612.2
2018-Nov-10 15:32N 59°54' E 010°45'0 0.2
2018-Nov-10 15:00N 59°54' E 010°45'0 0.0
2018-Nov-10 14:30N 59°54' E 010°45'0 0.0
2018-Nov-10 14:00N 59°54' E 010°45'0 0.0
2018-Nov-10 13:30N 59°54' E 010°45'0 0.0
2018-Nov-10 13:01N 59°54' E 010°45'0 0.0
2018-Nov-10 12:30N 59°54' E 010°45'0 0.0
2018-Nov-10 12:00N 59°54' E 010°45'1 1.5
2018-Nov-10 11:32N 59°54' E 010°43'815.4
2018-Nov-10 11:02N 59°48' E 010°35'715.1
2018-Nov-10 10:33N 59°40' E 010°37'816.0
2018-Nov-10 10:03N 59°32' E 010°37'917.9
2018-Nov-10 09:33N 59°23' E 010°35'918.7
2018-Nov-10 09:03N 59°14' E 010°38'918.6
2018-Nov-10 08:33N 59°05' E 010°40'918.1
2018-Nov-10 08:03N 58°56' E 010°41'918.3
2018-Nov-10 07:33N 58°47' E 010°43'816.1
2018-Nov-10 07:02N 58°38' E 010°43'3 5.1
2018-Nov-10 06:32N 58°36' E 010°44'2 4.2
2018-Nov-10 06:02N 58°34' E 010°44'1 2.6
2018-Nov-10 05:31N 58°35' E 010°44'1 1.0
2018-Nov-10 05:02N 58°36' E 010°44'1 2.2
2018-Nov-10 04:32N 58°35' E 010°45'1 1.8
2018-Nov-10 04:01N 58°34' E 010°45'1 2.3
2018-Nov-10 03:32N 58°33' E 010°46'1 1.5
2018-Nov-10 03:02N 58°32' E 010°47'612.2
2018-Nov-10 02:32N 58°26' E 010°51'1019.3
2018-Nov-10 02:01N 58°18' E 011°00'817.6
2018-Nov-10 01:33N 58°10' E 011°07'816.8
2018-Nov-10 01:03N 58°02' E 011°13'816.3
2018-Nov-10 00:33N 57°55' E 011°18'816.2
2018-Nov-10 00:03N 57°47' E 011°23'815.9
2018-Nov-09 23:33N 57°40' E 011°29'816.1
2018-Nov-09 23:03N 57°32' E 011°34'816.3
2018-Nov-09 22:33N 57°25' E 011°40'816.7
2018-Nov-09 22:03N 57°17' E 011°47'816.4
2018-Nov-09 21:33N 57°10' E 011°55'816.3
2018-Nov-09 21:03N 57°03' E 012°01'1216.0
2018-Nov-09 20:17N 56°51' E 012°09'4316.3
2018-Nov-09 17:39N 56°10' E 012°29'218.3
2018-Nov-09 17:32N 56°08' E 012°31'917.7
2018-Nov-09 17:03N 56°01' E 012°40'816.8
2018-Nov-09 16:33N 55°53' E 012°45'816.0
2018-Nov-09 16:03N 55°45' E 012°41'4 8.7
2018-Nov-09 15:32N 55°42' E 012°36'0 0.0
2018-Nov-09 15:00N 55°42' E 012°36'0 0.0
2018-Nov-09 14:24N 55°42' E 012°36'0 0.0
2018-Nov-09 14:00N 55°42' E 012°36'0 0.0
2018-Nov-09 13:27N 55°42' E 012°36'0 0.0
2018-Nov-09 12:57N 55°42' E 012°36'0 0.0
2018-Nov-09 12:30N 55°42' E 012°36'0 0.0
2018-Nov-09 11:57N 55°42' E 012°36'0 0.0
2018-Nov-09 11:30N 55°42' E 012°36'0 0.0
2018-Nov-09 11:00N 55°42' E 012°36'0 0.0
2018-Nov-09 10:27N 55°42' E 012°36'0 0.0
2018-Nov-09 09:57N 55°42' E 012°36'0 0.0
2018-Nov-09 09:27N 55°42' E 012°36'0 0.0
2018-Nov-09 08:57N 55°42' E 012°36'0 0.5
2018-Nov-09 08:33N 55°42' E 012°36'5 9.9
2018-Nov-09 08:02N 55°46' E 012°41'715.0
2018-Nov-09 07:32N 55°54' E 012°44'816.2
2018-Nov-09 07:02N 56°01' E 012°40'815.3
2018-Nov-09 06:32N 56°07' E 012°31'815.0
2018-Nov-09 06:01N 56°14' E 012°25'1815.8
2018-Nov-09 04:54N 56°31' E 012°16'4716.5
2018-Nov-09 02:04N 57°16' E 011°51'017.4
2018-Nov-09 02:02N 57°16' E 011°51'917.1
2018-Nov-09 01:33N 57°23' E 011°41'917.5
2018-Nov-09 01:03N 57°30' E 011°32'917.7
2018-Nov-09 00:33N 57°38' E 011°23'917.8
2018-Nov-09 00:03N 57°45' E 011°15'917.5
2018-Nov-08 23:32N 57°53' E 011°07'917.6
2018-Nov-08 23:02N 58°01' E 010°59'917.8
2018-Nov-08 22:32N 58°09' E 010°52'917.2
2018-Nov-08 22:02N 58°17' E 010°46'816.1
2018-Nov-08 21:32N 58°25' E 010°40'816.1
2018-Nov-08 21:02N 58°32' E 010°37'816.4
2018-Nov-08 20:32N 58°40' E 010°36'815.7
2018-Nov-08 20:03N 58°48' E 010°35'815.5
2018-Nov-08 19:33N 58°56' E 010°37'816.3
2018-Nov-08 19:02N 59°04' E 010°38'817.0
2018-Nov-08 18:32N 59°12' E 010°37'917.1
2018-Nov-08 18:02N 59°21' E 010°34'816.5
2018-Nov-08 17:33N 59°29' E 010°34'816.4
2018-Nov-08 17:02N 59°37' E 010°38'713.5
2018-Nov-08 16:32N 59°44' E 010°34'815.6
2018-Nov-08 16:03N 59°51' E 010°36'510.0
2018-Nov-08 15:33N 59°54' E 010°45'0 0.3
2018-Nov-08 15:02N 59°54' E 010°45'0 0.0
2018-Nov-08 14:32N 59°54' E 010°45'0 0.0
2018-Nov-08 14:02N 59°54' E 010°45'0 0.0
2018-Nov-08 13:32N 59°54' E 010°45'0 0.0
2018-Nov-08 13:02N 59°54' E 010°45'0 0.0
2018-Nov-08 12:32N 59°54' E 010°45'0 0.0
2018-Nov-08 12:02N 59°54' E 010°45'0 0.0
2018-Nov-08 11:32N 59°54' E 010°45'0 0.0
2018-Nov-08 11:02N 59°54' E 010°45'0 0.0
2018-Nov-08 10:32N 59°54' E 010°45'0 0.0
2018-Nov-08 10:02N 59°54' E 010°45'0 0.0
2018-Nov-08 09:32N 59°54' E 010°45'0 0.0
2018-Nov-08 09:02N 59°54' E 010°45'0 0.5
2018-Nov-08 08:32N 59°54' E 010°45'611.9
2018-Nov-08 08:02N 59°50' E 010°36'714.7
2018-Nov-08 07:32N 59°43' E 010°36'713.4
2018-Nov-08 07:02N 59°36' E 010°38'815.8
2018-Nov-08 06:32N 59°28' E 010°35'815.8
2018-Nov-08 06:02N 59°20' E 010°36'816.2
2018-Nov-08 05:32N 59°12' E 010°38'816.1
2018-Nov-08 05:02N 59°04' E 010°41'816.1
2018-Nov-08 04:32N 58°57' E 010°43'816.2
2018-Nov-08 04:02N 58°48' E 010°45'816.1
2018-Nov-08 03:32N 58°40' E 010°46'816.1
2018-Nov-08 03:03N 58°33' E 010°52'816.3
2018-Nov-08 02:32N 58°25' E 010°57'816.4
2018-Nov-08 02:02N 58°17' E 011°02'816.8
2018-Nov-08 01:32N 58°09' E 011°07'817.1
2018-Nov-08 01:03N 58°02' E 011°13'517.0
2018-Nov-08 00:43N 57°56' E 011°16'316.7
2018-Nov-08 00:32N 57°54' E 011°19'116.5
2018-Nov-08 00:28N 57°53' E 011°19'716.1
2018-Nov-08 00:03N 57°46' E 011°24'816.1
2018-Nov-07 23:33N 57°39' E 011°30'816.0
2018-Nov-07 23:02N 57°31' E 011°35'816.0
2018-Nov-07 22:32N 57°24' E 011°42'816.4
2018-Nov-07 22:03N 57°17' E 011°49'816.5
2018-Nov-07 21:32N 57°09' E 011°56'816.4
2018-Nov-07 21:02N 57°02' E 012°02'816.1
2018-Nov-07 20:32N 56°54' E 012°07'916.3
2018-Nov-07 20:00N 56°46' E 012°12'3715.7
2018-Nov-07 17:38N 56°10' E 012°29'217.5
2018-Nov-07 17:32N 56°08' E 012°31'817.1
2018-Nov-07 17:02N 56°02' E 012°40'816.4
2018-Nov-07 16:32N 55°54' E 012°44'815.9
2018-Nov-07 16:02N 55°46' E 012°42'510.3
2018-Nov-07 15:32N 55°42' E 012°36'0 0.2
2018-Nov-07 14:59N 55°42' E 012°36'0 0.0
2018-Nov-07 14:32N 55°42' E 012°36'0 0.0
2018-Nov-07 14:02N 55°42' E 012°36'0 0.0
2018-Nov-07 13:32N 55°42' E 012°36'0 0.0
2018-Nov-07 13:02N 55°42' E 012°36'0 0.0
2018-Nov-07 12:32N 55°42' E 012°36'0 0.0
2018-Nov-07 12:02N 55°42' E 012°36'0 0.0
2018-Nov-07 11:32N 55°42' E 012°36'0 0.0
2018-Nov-07 11:02N 55°42' E 012°36'0 0.0
2018-Nov-07 10:32N 55°42' E 012°36'0 0.0
2018-Nov-07 10:02N 55°42' E 012°36'0 0.0
2018-Nov-07 09:26N 55°42' E 012°36'0 0.0
2018-Nov-07 08:44N 55°42' E 012°36'0 0.0
2018-Nov-07 08:31N 55°42' E 012°36'2 4.8
2018-Nov-07 08:02N 55°44' E 012°39'612.5
2018-Nov-07 07:32N 55°50' E 012°41'713.1
2018-Nov-07 07:02N 55°56' E 012°39'714.2
2018-Nov-07 06:32N 56°03' E 012°38'713.9
2018-Nov-07 06:02N 56°08' E 012°29'713.7
2018-Nov-07 05:31N 56°15' E 012°25'9916.5
2018-Nov-06 23:30N 57°46' E 011°13'817.7
2018-Nov-06 23:03N 57°52' E 011°05'117.6
2018-Nov-06 23:00N 57°53' E 011°04'1918.5
2018-Nov-06 22:00N 58°10' E 010°51'918.2
2018-Nov-06 21:29N 58°19' E 010°45'716.6
2018-Nov-06 21:03N 58°26' E 010°40'225.2
2018-Nov-06 20:59N 58°27' E 010°39'816.8
2018-Nov-06 20:29N 58°36' E 010°36'816.7
2018-Nov-06 20:01N 58°43' E 010°35'0 1.1
2018-Nov-06 20:00N 58°43' E 010°35'917.9
2018-Nov-06 19:30N 58°52' E 010°35'817.9
2018-Nov-06 19:03N 59°00' E 010°36'118.7
2018-Nov-06 19:00N 59°01' E 010°37'918.4
2018-Nov-06 18:30N 59°10' E 010°38'818.6
2018-Nov-06 18:03N 59°19' E 010°35'118.6
2018-Nov-06 18:00N 59°19' E 010°35'918.4
2018-Nov-06 17:30N 59°29' E 010°34'817.8
2018-Nov-06 17:03N 59°36' E 010°38'116.4
2018-Nov-06 17:00N 59°37' E 010°38'713.7
2018-Nov-06 16:30N 59°44' E 010°34'816.7
2018-Nov-06 16:04N 59°51' E 010°36'117.0
2018-Nov-06 16:00N 59°52' E 010°37'4 9.0
2018-Nov-06 15:31N 59°54' E 010°45'0 0.0
2018-Nov-06 15:02N 59°54' E 010°45'0 0.0
2018-Nov-06 14:56N 59°54' E 010°45'0 0.0
2018-Nov-06 14:29N 59°54' E 010°45'0 0.0
2018-Nov-06 13:59N 59°54' E 010°45'0 0.0
2018-Nov-06 13:26N 59°54' E 010°45'0 0.0
2018-Nov-06 13:02N 59°54' E 010°45'0 0.0
2018-Nov-06 12:59N 59°54' E 010°45'0 0.0
2018-Nov-06 12:29N 59°54' E 010°45'0 0.0
2018-Nov-06 11:59N 59°54' E 010°45'0 0.0
2018-Nov-06 11:29N 59°54' E 010°45'0 0.0
2018-Nov-06 11:02N 59°54' E 010°45'0 0.0
2018-Nov-06 10:59N 59°54' E 010°45'0 0.0
2018-Nov-06 10:29N 59°54' E 010°45'0 0.0
2018-Nov-06 10:02N 59°54' E 010°45'0 0.0
2018-Nov-06 09:59N 59°54' E 010°45'0 0.0
2018-Nov-06 09:29N 59°54' E 010°45'0 0.0
2018-Nov-06 09:02N 59°54' E 010°45'0 0.0
2018-Nov-06 08:59N 59°54' E 010°45'1 1.9
2018-Nov-06 08:30N 59°54' E 010°43'614.1
2018-Nov-06 08:04N 59°49' E 010°35'116.8
2018-Nov-06 08:01N 59°48' E 010°35'714.2
2018-Nov-06 07:30N 59°41' E 010°36'613.5
2018-Nov-06 07:04N 59°35' E 010°38'115.5
2018-Nov-06 07:01N 59°34' E 010°38'815.5
2018-Nov-06 06:31N 59°27' E 010°34'715.8
2018-Nov-06 06:04N 59°20' E 010°36'115.9
2018-Nov-06 06:01N 59°19' E 010°36'816.1
2018-Nov-06 05:31N 59°11' E 010°39'716.1
2018-Nov-06 05:04N 59°04' E 010°42'116.0
2018-Nov-06 05:01N 59°03' E 010°42'815.6
2018-Nov-06 04:31N 58°56' E 010°43'715.8
2018-Nov-06 04:03N 58°48' E 010°44'115.7
2018-Nov-06 04:00N 58°48' E 010°45'917.2
2018-Nov-06 03:29N 58°39' E 010°47'716.2
2018-Nov-06 03:04N 58°32' E 010°51'115.1
2018-Nov-06 02:58N 58°31' E 010°52'715.0
2018-Nov-06 02:30N 58°24' E 010°56'716.7
2018-Nov-06 02:03N 58°17' E 011°01'112.4
2018-Nov-06 02:00N 58°16' E 011°01'817.2
2018-Nov-06 01:31N 58°08' E 011°06'816.9
2018-Nov-06 01:01N 58°00' E 011°11'2516.6
2018-Nov-05 23:31N 57°37' E 011°25'715.9
2018-Nov-05 23:04N 57°30' E 011°29'116.0
2018-Nov-05 23:01N 57°29' E 011°30'816.3
2018-Nov-05 22:30N 57°21' E 011°35'716.5
2018-Nov-05 22:04N 57°14' E 011°39'116.4
2018-Nov-05 22:01N 57°14' E 011°39'816.8
2018-Nov-05 21:31N 57°05' E 011°43'816.8
2018-Nov-05 21:02N 56°58' E 011°48'116.9
2018-Nov-05 21:00N 56°57' E 011°48'917.3
2018-Nov-05 20:29N 56°49' E 011°52'817.2
2018-Nov-05 20:03N 56°41' E 011°56'116.9
2018-Nov-05 20:00N 56°41' E 011°56'816.8
2018-Nov-05 19:30N 56°33' E 011°59'817.1
2018-Nov-05 19:03N 56°25' E 012°05'1216.9
2018-Nov-05 18:21N 56°16' E 012°18'516.4
2018-Nov-05 18:03N 56°12' E 012°24'116.9
2018-Nov-05 18:00N 56°12' E 012°25'917.3
2018-Nov-05 17:31N 56°05' E 012°35'716.2
2018-Nov-05 17:04N 55°59' E 012°41'115.3
2018-Nov-05 17:01N 55°58' E 012°42'815.3
2018-Nov-05 16:31N 55°51' E 012°44'715.0
2018-Nov-05 16:04N 55°45' E 012°40'114.3
2018-Nov-05 16:01N 55°44' E 012°40'3 5.4
2018-Nov-05 15:30N 55°42' E 012°36'0 0.0
2018-Nov-05 15:03N 55°42' E 012°36'0 0.0
2018-Nov-05 15:00N 55°42' E 012°36'0 0.0
2018-Nov-05 14:27N 55°42' E 012°36'0 0.0
2018-Nov-05 14:03N 55°42' E 012°36'0 0.0
2018-Nov-05 14:00N 55°42' E 012°36'0 0.0
2018-Nov-05 13:03N 55°42' E 012°36'0 0.0
2018-Nov-05 13:00N 55°42' E 012°36'0 0.0
2018-Nov-05 12:30N 55°42' E 012°36'0 0.0
2018-Nov-05 12:00N 55°42' E 012°36'0 0.0
2018-Nov-05 11:30N 55°42' E 012°36'0 0.0
2018-Nov-05 11:03N 55°42' E 012°36'0 0.0
2018-Nov-05 11:00N 55°42' E 012°36'0 0.0
2018-Nov-05 10:30N 55°42' E 012°36'0 0.0
2018-Nov-05 10:00N 55°42' E 012°36'0 0.0
2018-Nov-05 09:30N 55°42' E 012°36'0 0.0
2018-Nov-05 09:03N 55°42' E 012°36'0 0.1
2018-Nov-05 09:00N 55°42' E 012°36'3 5.3
2018-Nov-05 08:30N 55°44' E 012°39'715.1
2018-Nov-05 08:03N 55°51' E 012°41'116.7
2018-Nov-05 08:00N 55°51' E 012°41'816.4
2018-Nov-05 07:30N 55°60' E 012°40'715.5
2018-Nov-05 07:03N 56°06' E 012°34'115.8
2018-Nov-05 07:00N 56°06' E 012°33'815.2
2018-Nov-05 06:30N 56°13' E 012°26'915.8
2018-Nov-05 05:57N 56°21' E 012°21'816.8
2018-Nov-05 05:27N 56°29' E 012°16'2217.7
2018-Nov-05 04:14N 56°50' E 012°05'617.8
2018-Nov-05 03:52N 56°56' E 012°02'918.4
2018-Nov-05 03:25N 57°04' E 011°58'1018.0
2018-Nov-05 02:52N 57°13' E 011°52'617.9
2018-Nov-05 02:30N 57°19' E 011°46'817.2
2018-Nov-05 02:03N 57°25' E 011°38'117.3
2018-Nov-05 02:00N 57°26' E 011°37'917.5
2018-Nov-05 01:30N 57°34' E 011°28'817.2
2018-Nov-05 01:03N 57°40' E 011°21'117.2
2018-Nov-05 01:00N 57°41' E 011°21'816.9
2018-Nov-05 00:30N 57°49' E 011°15'816.9
2018-Nov-05 00:03N 57°55' E 011°08'116.9
2018-Nov-05 00:00N 57°56' E 011°07'917.0
2018-Nov-04 23:30N 58°04' E 010°59'817.6
2018-Nov-04 23:03N 58°10' E 010°51'117.3
2018-Nov-04 23:00N 58°11' E 010°50'816.7
2018-Nov-04 22:30N 58°19' E 010°45'816.8
2018-Nov-04 22:03N 58°26' E 010°40'117.0
2018-Nov-04 22:00N 58°27' E 010°39'815.2
2018-Nov-04 21:30N 58°34' E 010°37'714.7
2018-Nov-04 21:03N 58°41' E 010°35'115.2
2018-Nov-04 21:00N 58°42' E 010°35'815.4
2018-Nov-04 20:31N 58°49' E 010°33'714.8
2018-Nov-04 20:03N 58°56' E 010°32'114.7
2018-Nov-04 20:01N 58°57' E 010°32'611.6
2018-Nov-04 19:30N 59°02' E 010°34'613.5
2018-Nov-04 19:03N 59°08' E 010°37'114.2
2018-Nov-04 19:00N 59°09' E 010°38'714.9
2018-Nov-04 18:31N 59°16' E 010°36'715.1
2018-Nov-04 18:03N 59°23' E 010°34'115.1
2018-Nov-04 18:00N 59°24' E 010°34'714.9
2018-Nov-04 17:30N 59°31' E 010°35'815.0
2018-Nov-04 17:01N 59°38' E 010°37'612.6
2018-Nov-04 16:31N 59°44' E 010°33'714.6
2018-Nov-04 16:03N 59°51' E 010°35'115.1
2018-Nov-04 16:00N 59°51' E 010°36'5 9.8
2018-Nov-04 15:30N 59°54' E 010°45'0 0.3
2018-Nov-04 15:03N 59°54' E 010°45'0 0.0
2018-Nov-04 15:00N 59°54' E 010°45'0 0.0
2018-Nov-04 14:30N 59°54' E 010°45'0 0.0
2018-Nov-04 14:04N 59°54' E 010°45'0 0.0
2018-Nov-04 14:01N 59°54' E 010°45'0 0.0
2018-Nov-04 13:30N 59°54' E 010°45'0 0.0
2018-Nov-04 13:03N 59°54' E 010°45'0 0.0
2018-Nov-04 13:00N 59°54' E 010°45'0 0.0
2018-Nov-04 12:30N 59°54' E 010°45'0 0.0
2018-Nov-04 12:03N 59°54' E 010°45'0 0.0
2018-Nov-04 12:01N 59°54' E 010°45'0 0.0
2018-Nov-04 11:30N 59°54' E 010°45'0 0.0
2018-Nov-04 11:04N 59°54' E 010°45'0 0.0
2018-Nov-04 11:01N 59°54' E 010°45'0 0.0
2018-Nov-04 10:31N 59°54' E 010°45'0 0.0
2018-Nov-04 10:04N 59°54' E 010°45'0 0.0
2018-Nov-04 10:01N 59°54' E 010°45'0 0.0
2018-Nov-04 09:31N 59°54' E 010°45'0 0.0
2018-Nov-04 09:03N 59°54' E 010°45'0 0.0
2018-Nov-04 09:00N 59°54' E 010°45'0 0.6
2018-Nov-04 08:31N 59°54' E 010°44'613.1
2018-Nov-04 08:03N 59°50' E 010°36'115.2
2018-Nov-04 08:01N 59°49' E 010°35'714.6
2018-Nov-04 07:30N 59°42' E 010°36'612.7
2018-Nov-04 07:03N 59°36' E 010°38'115.8
2018-Nov-04 07:00N 59°36' E 010°38'816.1
2018-Nov-04 06:30N 59°28' E 010°34'816.9
2018-Nov-04 06:03N 59°20' E 010°36'117.0
2018-Nov-04 06:00N 59°19' E 010°36'816.9
2018-Nov-04 05:30N 59°11' E 010°39'716.3
2018-Nov-04 05:04N 59°04' E 010°38'115.9
2018-Nov-04 05:01N 59°03' E 010°38'815.7
2018-Nov-04 04:30N 58°55' E 010°38'716.3
2018-Nov-04 04:03N 58°48' E 010°38'116.5
2018-Nov-04 04:00N 58°47' E 010°38'816.2
2018-Nov-04 03:30N 58°39' E 010°38'716.2
2018-Nov-04 03:03N 58°31' E 010°38'116.6
2018-Nov-04 03:00N 58°30' E 010°38'816.8
2018-Nov-04 02:30N 58°22' E 010°41'816.6
2018-Nov-04 02:03N 58°15' E 010°44'116.3
2018-Nov-04 02:00N 58°14' E 010°45'816.2
2018-Nov-04 01:30N 58°07' E 010°52'715.9
2018-Nov-04 01:03N 58°01' E 010°58'115.9
2018-Nov-04 01:00N 58°00' E 010°59'816.0
2018-Nov-04 00:30N 57°53' E 011°04'716.0
2018-Nov-04 00:03N 57°46' E 011°09'116.2
2018-Nov-04 00:00N 57°45' E 011°09'815.9
2018-Nov-03 23:30N 57°38' E 011°14'716.3
2018-Nov-03 23:03N 57°32' E 011°22'116.4
2018-Nov-03 23:00N 57°31' E 011°23'816.4
2018-Nov-03 22:31N 57°23' E 011°29'3416.6
2018-Nov-03 20:27N 56°52' E 011°53'3116.3
2018-Nov-03 18:31N 56°24' E 012°18'018.7
2018-Nov-03 18:31N 56°24' E 012°18'1616.6
2018-Nov-03 17:33N 56°09' E 012°31'117.3
2018-Nov-03 17:30N 56°08' E 012°31'716.7
2018-Nov-03 17:03N 56°03' E 012°40'113.7
2018-Nov-03 17:00N 56°02' E 012°40'815.9
2018-Nov-03 16:30N 55°54' E 012°45'716.1
2018-Nov-03 16:03N 55°47' E 012°42'115.5
2018-Nov-03 16:01N 55°47' E 012°42'510.6
2018-Nov-03 15:30N 55°42' E 012°36'0 0.6
2018-Nov-03 15:04N 55°42' E 012°36'0 0.0
2018-Nov-03 15:01N 55°42' E 012°36'0 0.0
2018-Nov-03 14:31N 55°42' E 012°36'0 0.0
2018-Nov-03 14:03N 55°42' E 012°36'0 0.0
2018-Nov-03 14:00N 55°42' E 012°36'0 0.0
2018-Nov-03 13:31N 55°42' E 012°36'0 0.0
2018-Nov-03 13:03N 55°42' E 012°36'0 0.0
2018-Nov-03 13:00N 55°42' E 012°36'0 0.0
2018-Nov-03 12:30N 55°42' E 012°36'0 0.0
2018-Nov-03 12:03N 55°42' E 012°36'0 0.0
2018-Nov-03 12:00N 55°42' E 012°36'0 0.0
2018-Nov-03 11:31N 55°42' E 012°36'0 0.0
2018-Nov-03 11:03N 55°42' E 012°36'0 0.0
2018-Nov-03 11:01N 55°42' E 012°36'0 0.0
2018-Nov-03 10:30N 55°42' E 012°36'0 0.0
2018-Nov-03 10:04N 55°42' E 012°36'0 0.0
2018-Nov-03 10:01N 55°42' E 012°36'0 0.0
2018-Nov-03 09:30N 55°42' E 012°36'0 0.7
2018-Nov-03 09:04N 55°42' E 012°36'0 1.1
2018-Nov-03 09:00N 55°42' E 012°36'713.4
2018-Nov-03 08:31N 55°48' E 012°42'817.3
2018-Nov-03 08:03N 55°56' E 012°39'118.1
2018-Nov-03 08:00N 55°57' E 012°39'816.8
2018-Nov-03 07:31N 56°05' E 012°36'818.1
2018-Nov-03 07:03N 56°12' E 012°27'118.0
2018-Nov-03 07:01N 56°12' E 012°27'4817.4
2018-Nov-03 04:14N 56°58' E 012°00'1518.4
2018-Nov-03 03:25N 57°13' E 011°53'618.5
2018-Nov-03 03:04N 57°19' E 011°47'118.4
2018-Nov-03 03:01N 57°19' E 011°46'918.1
2018-Nov-03 02:31N 57°27' E 011°37'818.4
2018-Nov-03 02:03N 57°34' E 011°29'118.3
2018-Nov-03 02:00N 57°35' E 011°28'918.2
2018-Nov-03 01:30N 57°43' E 011°19'818.6
2018-Nov-03 01:04N 57°50' E 011°11'118.5
2018-Nov-03 01:01N 57°51' E 011°10'918.1
2018-Nov-03 00:30N 57°58' E 011°01'818.1
2018-Nov-03 00:03N 58°06' E 010°56'117.6
2018-Nov-03 00:00N 58°07' E 010°55'917.5
2018-Nov-02 23:30N 58°15' E 010°49'817.5
2018-Nov-02 23:03N 58°23' E 010°45'117.5
2018-Nov-02 23:00N 58°23' E 010°45'917.4
2018-Nov-02 22:30N 58°32' E 010°39'817.9
2018-Nov-02 22:03N 58°39' E 010°34'117.7
2018-Nov-02 22:00N 58°40' E 010°34'917.5
2018-Nov-02 21:30N 58°49' E 010°35'716.5
2018-Nov-02 21:04N 58°56' E 010°34'115.3
2018-Nov-02 21:01N 58°57' E 010°33'815.3
2018-Nov-02 20:30N 59°04' E 010°36'511.1
2018-Nov-02 20:03N 59°09' E 010°38'0 9.5
2018-Nov-02 20:00N 59°10' E 010°38'5 9.7
2018-Nov-02 19:30N 59°15' E 010°37'4 9.8
2018-Nov-02 19:03N 59°19' E 010°36'0 9.7
2018-Nov-02 19:00N 59°19' E 010°36'5 9.6
2018-Nov-02 18:30N 59°24' E 010°34'4 9.9
2018-Nov-02 18:03N 59°29' E 010°34'110.1
2018-Nov-02 18:00N 59°29' E 010°34'510.3
2018-Nov-02 17:30N 59°34' E 010°38'511.8
2018-Nov-02 17:03N 59°39' E 010°37'111.3
2018-Nov-02 17:00N 59°40' E 010°37'611.9
2018-Nov-02 16:30N 59°45' E 010°33'613.5
2018-Nov-02 16:04N 59°51' E 010°36'113.7
2018-Nov-02 16:00N 59°52' E 010°37'4 8.8
2018-Nov-02 15:31N 59°54' E 010°45'0 0.2
2018-Nov-02 15:01N 59°54' E 010°45'0 0.0
2018-Nov-02 14:55N 59°54' E 010°45'0 0.0
2018-Nov-02 14:28N 59°54' E 010°45'0 0.0
2018-Nov-02 13:58N 59°54' E 010°45'0 0.0
2018-Nov-02 13:25N 59°54' E 010°45'0 0.0
2018-Nov-02 13:01N 59°54' E 010°45'0 0.0
2018-Nov-02 12:58N 59°54' E 010°45'0 0.0
2018-Nov-02 12:28N 59°54' E 010°45'0 0.0
2018-Nov-02 12:01N 59°54' E 010°45'0 0.0
2018-Nov-02 11:58N 59°54' E 010°45'0 0.0
2018-Nov-02 11:28N 59°54' E 010°45'0 0.0
2018-Nov-02 10:58N 59°54' E 010°45'0 0.0
2018-Nov-02 10:28N 59°54' E 010°45'0 0.0
2018-Nov-02 10:01N 59°54' E 010°45'0 0.0
2018-Nov-02 09:58N 59°54' E 010°45'0 0.0
2018-Nov-02 09:28N 59°54' E 010°45'0 0.0
2018-Nov-02 09:01N 59°54' E 010°45'0 0.0
2018-Nov-02 08:58N 59°54' E 010°45'1 1.3
2018-Nov-02 08:30N 59°54' E 010°44'614.0
2018-Nov-02 08:04N 59°49' E 010°35'115.6
2018-Nov-02 08:00N 59°49' E 010°35'714.5
2018-Nov-02 07:30N 59°41' E 010°36'613.0
2018-Nov-02 07:03N 59°36' E 010°38'115.0
2018-Nov-02 07:00N 59°35' E 010°38'714.7
2018-Nov-02 06:30N 59°28' E 010°34'715.0
2018-Nov-02 06:03N 59°21' E 010°35'116.1
2018-Nov-02 06:00N 59°20' E 010°36'816.1
2018-Nov-02 05:30N 59°12' E 010°38'716.1
2018-Nov-02 05:04N 59°05' E 010°40'116.4
2018-Nov-02 05:01N 59°04' E 010°40'816.1
2018-Nov-02 04:30N 58°56' E 010°42'715.8
2018-Nov-02 04:03N 58°49' E 010°44'115.6
2018-Nov-02 04:00N 58°49' E 010°44'815.7
2018-Nov-02 03:30N 58°41' E 010°48'715.8
2018-Nov-02 03:03N 58°34' E 010°52'116.0
2018-Nov-02 03:00N 58°33' E 010°52'816.2
2018-Nov-02 02:30N 58°26' E 010°57'716.1
2018-Nov-02 02:04N 58°19' E 011°01'116.1
2018-Nov-02 02:00N 58°18' E 011°02'816.5
2018-Nov-02 01:30N 58°10' E 011°07'716.6
2018-Nov-02 01:03N 58°03' E 011°12'116.0
2018-Nov-02 01:00N 58°03' E 011°12'116.1
2018-Nov-02 00:56N 58°01' E 011°13'516.3
2018-Nov-02 00:36N 57°56' E 011°17'116.1
2018-Nov-02 00:30N 57°55' E 011°18'716.0
2018-Nov-02 00:04N 57°48' E 011°22'116.0
2018-Nov-02 00:00N 57°47' E 011°23'815.9
2018-Nov-01 23:31N 57°40' E 011°28'715.4
2018-Nov-01 23:03N 57°33' E 011°32'115.2
2018-Nov-01 23:00N 57°32' E 011°32'815.4
2018-Nov-01 22:30N 57°25' E 011°35'715.7
2018-Nov-01 22:03N 57°18' E 011°37'116.1
2018-Nov-01 22:00N 57°17' E 011°37'816.1
2018-Nov-01 21:30N 57°09' E 011°40'715.8
2018-Nov-01 21:03N 57°03' E 011°44'115.9
2018-Nov-01 21:00N 57°02' E 011°44'5616.3
2018-Nov-01 17:35N 56°11' E 012°27'218.2
2018-Nov-01 17:30N 56°10' E 012°29'818.2
2018-Nov-01 17:04N 56°04' E 012°38'116.7
2018-Nov-01 17:00N 56°03' E 012°39'816.2
2018-Nov-01 16:30N 55°56' E 012°44'716.2
2018-Nov-01 16:03N 55°48' E 012°43'115.6
2018-Nov-01 16:00N 55°48' E 012°43'612.6
2018-Nov-01 15:30N 55°42' E 012°37'1 1.0
2018-Nov-01 15:01N 55°42' E 012°36'0 0.0
2018-Nov-01 14:58N 55°42' E 012°36'0 0.0
2018-Nov-01 14:28N 55°42' E 012°36'0 0.0
2018-Nov-01 13:55N 55°42' E 012°36'0 0.0
2018-Nov-01 13:25N 55°42' E 012°36'0 0.0
2018-Nov-01 13:01N 55°42' E 012°36'0 0.0
2018-Nov-01 12:58N 55°42' E 012°36'0 0.0
2018-Nov-01 12:28N 55°42' E 012°36'0 0.0
2018-Nov-01 12:01N 55°42' E 012°36'0 0.0
2018-Nov-01 11:58N 55°42' E 012°36'0 0.0
2018-Nov-01 11:28N 55°42' E 012°36'0 0.0
2018-Nov-01 10:52N 55°42' E 012°36'0 0.0
2018-Nov-01 10:28N 55°42' E 012°36'0 0.0
2018-Nov-01 09:49N 55°42' E 012°36'0 0.0
2018-Nov-01 09:28N 55°42' E 012°36'0 0.5
2018-Nov-01 09:03N 55°42' E 012°36'0 2.5
2018-Nov-01 09:00N 55°42' E 012°36'510.9
2018-Nov-01 08:31N 55°47' E 012°42'715.3
2018-Nov-01 08:03N 55°54' E 012°40'116.0
2018-Nov-01 08:00N 55°54' E 012°39'815.9
2018-Nov-01 07:31N 56°02' E 012°39'714.6
2018-Nov-01 07:03N 56°07' E 012°31'115.5
2018-Nov-01 06:59N 56°08' E 012°30'816.0
2018-Nov-01 06:29N 56°15' E 012°24'6116.8
2018-Nov-01 02:50N 57°14' E 011°52'  

Dump ship's entire track history